createdAt,value
2019-04-04T00:00:58.752Z,2.88
2019-04-04T00:03:29.813Z,2.89
2019-04-04T00:06:01.991Z,2.84
2019-04-04T00:08:32.998Z,2.86
2019-04-04T00:11:05.924Z,2.86
2019-04-04T00:13:36.651Z,2.84
2019-04-04T00:16:08.551Z,2.89
2019-04-04T00:18:39.850Z,2.90
2019-04-04T00:21:10.857Z,2.90
2019-04-04T00:23:41.888Z,2.96
2019-04-04T00:26:12.887Z,2.94
2019-04-04T00:28:44.047Z,2.91
2019-04-04T00:31:18.843Z,2.86
2019-04-04T00:33:49.434Z,2.80
2019-04-04T00:36:20.447Z,2.71
2019-04-04T00:38:51.488Z,2.65
2019-04-04T00:41:22.478Z,2.59
2019-04-04T00:43:53.521Z,2.61
2019-04-04T00:46:25.701Z,2.49
2019-04-04T00:48:56.680Z,2.50
2019-04-04T00:51:27.613Z,2.52
2019-04-04T00:53:58.585Z,2.51
2019-04-04T00:56:29.523Z,2.49
2019-04-04T00:59:00.632Z,2.46
2019-04-04T01:01:31.583Z,2.39
2019-04-04T01:04:02.666Z,2.36
2019-04-04T01:06:34.295Z,2.35
2019-04-04T01:09:11.351Z,2.36
2019-04-04T01:11:39.183Z,2.40
2019-04-04T01:14:10.230Z,2.37
2019-04-04T01:16:42.205Z,2.27
2019-04-04T01:19:13.292Z,2.27
2019-04-04T01:21:44.315Z,2.21
2019-04-04T01:24:15.369Z,2.21
2019-04-04T01:26:46.408Z,2.22
2019-04-04T01:29:17.442Z,2.13
2019-04-04T01:31:48.380Z,2.11
2019-04-04T01:34:20.936Z,2.07
2019-04-04T01:36:52.097Z,2.05
2019-04-04T01:39:23.042Z,1.97
2019-04-04T01:41:53.983Z,1.91
2019-04-04T01:44:24.946Z,1.93
2019-04-04T01:46:55.898Z,1.84
2019-04-04T01:49:26.968Z,1.86
2019-04-04T01:51:58.008Z,1.85
2019-04-04T01:54:31.886Z,1.83
2019-04-04T01:57:02.584Z,1.75
2019-04-04T01:59:33.551Z,1.76
2019-04-04T02:02:04.851Z,1.63
2019-04-04T02:04:35.878Z,1.62
2019-04-04T02:07:06.892Z,1.58
2019-04-04T02:09:37.843Z,1.54
2019-04-04T02:12:08.872Z,1.57
2019-04-04T02:14:42.752Z,1.53
2019-04-04T02:17:13.539Z,1.56
2019-04-04T02:19:44.641Z,1.55
2019-04-04T02:22:15.575Z,1.55
2019-04-04T02:24:46.546Z,1.48
2019-04-04T02:27:17.470Z,1.41
2019-04-04T02:29:48.498Z,1.42
2019-04-04T02:32:21.055Z,1.41
2019-04-04T02:34:52.017Z,1.47
2019-04-04T02:37:24.091Z,1.42
2019-04-04T02:39:55.042Z,1.34
2019-04-04T02:42:25.985Z,1.27
2019-04-04T02:44:57.090Z,1.28
2019-04-04T02:47:28.059Z,1.27
2019-04-04T02:50:01.067Z,1.20
2019-04-04T02:52:31.701Z,1.19
2019-04-04T02:55:02.818Z,1.20
2019-04-04T02:57:33.838Z,1.21
2019-04-04T03:00:06.304Z,1.18
2019-04-04T03:02:38.249Z,1.16
2019-04-04T03:05:09.374Z,1.13
2019-04-04T03:07:40.286Z,1.14
2019-04-04T03:10:15.314Z,1.18
2019-04-04T03:12:43.876Z,1.23
2019-04-04T03:15:14.851Z,1.24
2019-04-04T03:17:46.633Z,1.25
2019-04-04T03:20:17.832Z,1.21
2019-04-04T03:22:49.180Z,1.14
2019-04-04T03:25:20.426Z,1.02
2019-04-04T03:27:51.704Z,0.99
2019-04-04T03:30:22.633Z,1.02
2019-04-04T03:32:54.987Z,1.03
2019-04-04T03:35:28.637Z,1.01
2019-04-04T03:37:59.011Z,0.91
2019-04-04T03:40:30.026Z,0.95
2019-04-04T03:43:01.095Z,0.97
2019-04-04T03:45:32.166Z,0.98
2019-04-04T03:48:03.083Z,0.96
2019-04-04T03:50:34.052Z,1.00
2019-04-04T03:53:04.976Z,1.01
2019-04-04T03:55:36.105Z,0.99
2019-04-04T03:58:07.042Z,0.94
2019-04-04T04:00:40.307Z,0.95
2019-04-04T04:03:10.622Z,0.98
2019-04-04T04:05:41.668Z,1.10
2019-04-04T04:08:12.585Z,1.14
2019-04-04T04:10:43.561Z,1.21
2019-04-04T04:13:17.347Z,1.29
2019-04-04T04:15:47.312Z,1.45
2019-04-04T04:18:21.447Z,1.52
2019-04-04T04:20:52.037Z,1.61
2019-04-04T04:23:24.138Z,1.74
2019-04-04T04:25:55.445Z,1.84
2019-04-04T04:28:26.337Z,1.95
2019-04-04T04:30:57.422Z,1.93
2019-04-04T04:33:29.378Z,1.95
2019-04-04T04:36:00.964Z,2.01
2019-04-04T04:38:31.959Z,2.14
2019-04-04T04:41:02.915Z,2.21
2019-04-04T04:43:33.975Z,2.27
2019-04-04T04:46:04.894Z,2.27
2019-04-04T04:48:35.801Z,2.29
2019-04-04T04:51:06.763Z,2.25
2019-04-04T04:53:37.698Z,2.28
2019-04-04T04:56:08.652Z,2.58
2019-04-04T04:58:41.774Z,2.76
2019-04-04T05:01:12.248Z,2.79
2019-04-04T05:03:43.151Z,2.95
2019-04-04T05:06:14.114Z,3.03
2019-04-04T05:08:45.124Z,3.20
2019-04-04T05:11:16.840Z,3.44
2019-04-04T05:13:48.831Z,3.66
2019-04-04T05:16:19.867Z,3.89
2019-04-04T05:18:51.649Z,4.01
2019-04-04T05:21:25.437Z,4.24
2019-04-04T05:23:55.302Z,4.69
2019-04-04T05:26:26.281Z,4.60
2019-04-04T05:28:57.405Z,4.90
2019-04-04T05:31:28.447Z,4.95
2019-04-04T05:33:59.806Z,5.51
2019-04-04T05:36:30.950Z,5.98
2019-04-04T05:39:01.856Z,5.70
2019-04-04T05:41:33.168Z,5.37
2019-04-04T05:44:04.100Z,5.38
2019-04-04T05:46:35.033Z,5.39
2019-04-04T05:49:08.137Z,5.58
2019-04-04T05:51:38.639Z,6.11
2019-04-04T05:54:09.549Z,6.22
2019-04-04T05:56:40.617Z,6.28
2019-04-04T05:59:11.625Z,6.38
2019-04-04T06:01:42.655Z,6.40
2019-04-04T06:04:14.557Z,6.24
2019-04-04T06:06:45.582Z,6.32
2019-04-04T06:09:16.556Z,6.63
2019-04-04T06:11:48.735Z,6.90
2019-04-04T06:14:20.713Z,7.20
2019-04-04T06:16:51.879Z,7.07
2019-04-04T06:19:23.770Z,7.35
2019-04-04T06:21:54.869Z,7.37
2019-04-04T06:24:27.291Z,7.73
2019-04-04T06:26:58.565Z,7.91
2019-04-04T06:29:29.552Z,7.82
2019-04-04T06:32:01.029Z,7.96
2019-04-04T06:34:32.111Z,8.07
2019-04-04T06:37:03.167Z,8.07
2019-04-04T06:39:34.069Z,8.10
2019-04-04T06:42:05.084Z,7.99
2019-04-04T06:44:36.021Z,8.10
2019-04-04T06:47:07.021Z,8.31
2019-04-04T06:49:38.058Z,8.43
2019-04-04T06:52:09.456Z,8.34
2019-04-04T06:54:40.480Z,8.91
2019-04-04T06:57:11.478Z,8.97
2019-04-04T06:59:43.382Z,8.84
2019-04-04T07:02:15.011Z,8.99
2019-04-04T07:04:45.929Z,9.11
2019-04-04T07:07:16.897Z,9.19
2019-04-04T07:09:48.274Z,9.36
2019-04-04T07:12:26.672Z,9.58
2019-04-04T07:14:53.135Z,9.63
2019-04-04T07:17:24.297Z,9.74
2019-04-04T07:19:57.447Z,9.64
2019-04-04T07:22:28.495Z,9.93
2019-04-04T07:25:01.072Z,10.01
2019-04-04T07:27:32.215Z,10.11
2019-04-04T07:30:03.589Z,10.09
2019-04-04T07:32:34.602Z,10.21
2019-04-04T07:35:07.330Z,10.04
2019-04-04T07:37:38.461Z,10.62
2019-04-04T07:40:09.707Z,10.27
2019-04-04T07:42:40.763Z,10.28
2019-04-04T07:45:14.274Z,10.57
2019-04-04T07:47:46.680Z,10.19
2019-04-04T07:50:17.235Z,10.28
2019-04-04T07:52:48.280Z,9.94
2019-04-04T07:55:19.259Z,10.18
2019-04-04T07:57:51.141Z,10.58
2019-04-04T08:00:22.544Z,10.53
2019-04-04T08:02:53.606Z,10.42
2019-04-04T08:05:24.608Z,10.95
2019-04-04T08:07:55.527Z,10.92
2019-04-04T08:10:26.437Z,11.40
2019-04-04T08:12:57.371Z,11.52
2019-04-04T08:15:29.024Z,11.69
2019-04-04T08:18:00.124Z,11.46
2019-04-04T08:20:31.948Z,11.64
2019-04-04T08:23:03.125Z,11.50
2019-04-04T08:25:34.030Z,11.77
2019-04-04T08:28:05.039Z,11.55
2019-04-04T08:30:36.102Z,11.56
2019-04-04T08:33:07.171Z,11.90
2019-04-04T08:35:38.224Z,12.16
2019-04-04T08:38:09.189Z,12.08
2019-04-04T08:40:40.171Z,11.84
2019-04-04T08:43:11.278Z,11.93
2019-04-04T08:45:42.347Z,12.07
2019-04-04T08:48:13.384Z,11.57
2019-04-04T08:50:44.550Z,11.52
2019-04-04T08:53:15.555Z,12.17
2019-04-04T08:55:46.663Z,12.10
2019-04-04T08:58:17.741Z,12.09
2019-04-04T09:00:48.796Z,12.18
2019-04-04T09:03:19.731Z,12.10
2019-04-04T09:05:50.709Z,12.14
2019-04-04T09:08:21.777Z,12.37
2019-04-04T09:10:52.771Z,12.26
2019-04-04T09:13:23.727Z,12.32
2019-04-04T09:15:54.769Z,12.56
2019-04-04T09:18:25.807Z,12.92
2019-04-04T09:20:57.540Z,12.58
2019-04-04T09:23:28.640Z,12.64
2019-04-04T09:26:05.452Z,12.98
2019-04-04T09:28:32.316Z,12.83
2019-04-04T09:31:03.423Z,12.65
2019-04-04T09:33:34.479Z,12.73
2019-04-04T09:36:05.475Z,12.45
2019-04-04T09:38:37.586Z,12.37
2019-04-04T09:41:08.687Z,12.35
2019-04-04T09:43:39.648Z,12.57
2019-04-04T09:46:10.633Z,12.53
2019-04-04T09:48:41.664Z,12.17
2019-04-04T09:51:12.693Z,11.93
2019-04-04T09:53:52.798Z,12.21
2019-04-04T09:56:16.264Z,12.78
2019-04-04T09:58:47.319Z,12.82
2019-04-04T10:01:18.373Z,13.27
2019-04-04T10:03:49.538Z,13.40
2019-04-04T10:06:20.528Z,13.47
2019-04-04T10:08:51.491Z,13.12
2019-04-04T10:11:23.956Z,13.13
2019-04-04T10:13:54.909Z,13.16
2019-04-04T10:16:25.923Z,13.05
2019-04-04T10:18:58.070Z,13.14
2019-04-04T10:21:30.027Z,13.36
2019-04-04T10:24:01.124Z,13.15
2019-04-04T10:26:32.105Z,13.42
2019-04-04T10:29:03.200Z,13.25
2019-04-04T10:31:34.129Z,13.19
2019-04-04T10:34:05.149Z,12.95
2019-04-04T10:36:36.149Z,13.17
2019-04-04T10:39:10.602Z,13.78
2019-04-04T10:41:41.963Z,13.15
2019-04-04T10:44:12.970Z,13.08
2019-04-04T10:46:43.924Z,13.38
2019-04-04T10:49:14.857Z,13.41
2019-04-04T10:51:45.656Z,13.16
2019-04-04T10:54:16.482Z,12.86
2019-04-04T10:56:47.442Z,12.39
2019-04-04T10:59:18.447Z,12.40
2019-04-04T11:01:49.351Z,13.02
2019-04-04T11:04:20.274Z,13.37
2019-04-04T11:06:51.265Z,12.83
2019-04-04T11:09:22.293Z,13.35
2019-04-04T11:11:53.312Z,13.15
2019-04-04T11:14:25.261Z,13.42
2019-04-04T11:16:56.503Z,13.50
2019-04-04T11:19:31.313Z,13.26
2019-04-04T11:22:02.021Z,13.55
2019-04-04T11:24:33.027Z,13.60
2019-04-04T11:27:03.943Z,13.82
2019-04-04T11:29:34.887Z,13.28
2019-04-04T11:32:05.798Z,13.39
2019-04-04T11:34:36.767Z,13.65
2019-04-04T11:37:07.792Z,13.70
2019-04-04T11:39:38.849Z,14.04
2019-04-04T11:42:09.935Z,14.13
2019-04-04T11:44:40.851Z,13.42
2019-04-04T11:47:11.815Z,13.51
2019-04-04T11:49:42.745Z,13.18
2019-04-04T11:52:13.730Z,13.32
2019-04-04T11:54:58.432Z,13.56
2019-04-04T11:57:29.344Z,13.44
2019-04-04T12:00:00.370Z,13.86
2019-04-04T12:02:32.695Z,13.80
2019-04-04T12:05:04.769Z,13.80
2019-04-04T12:07:38.247Z,13.76
2019-04-04T12:10:08.499Z,13.74
2019-04-04T12:12:39.433Z,13.50
2019-04-04T12:15:10.548Z,13.44
2019-04-04T12:17:41.442Z,13.34
2019-04-04T12:20:12.501Z,13.49
2019-04-04T12:22:44.279Z,13.70
2019-04-04T12:25:15.350Z,13.63
2019-04-04T12:27:46.285Z,13.00
2019-04-04T12:30:17.225Z,13.17
2019-04-04T12:32:48.194Z,13.03
2019-04-04T12:35:19.217Z,13.22
2019-04-04T12:37:52.543Z,13.30
2019-04-04T12:40:23.586Z,13.36
2019-04-04T12:42:54.551Z,13.74
2019-04-04T12:45:25.565Z,13.60
2019-04-04T12:47:56.484Z,13.13
2019-04-04T12:50:27.520Z,13.29
2019-04-04T12:52:58.482Z,13.40
2019-04-04T12:55:29.514Z,13.20
2019-04-04T12:58:00.546Z,13.59
2019-04-04T13:00:31.602Z,13.69
2019-04-04T13:03:02.660Z,13.43
2019-04-04T13:05:33.669Z,13.51
2019-04-04T13:08:04.581Z,13.71
2019-04-04T13:10:35.493Z,13.82
2019-04-04T13:13:06.487Z,13.55
2019-04-04T13:15:37.541Z,13.35
2019-04-04T13:18:08.490Z,13.20
2019-04-04T13:20:39.606Z,13.31
2019-04-04T13:23:11.569Z,13.43
2019-04-04T13:25:43.683Z,13.40
2019-04-04T13:28:14.730Z,12.45
2019-04-04T13:30:45.811Z,12.83
2019-04-04T13:33:16.809Z,12.91
2019-04-04T13:35:47.844Z,13.06
2019-04-04T13:38:18.949Z,13.17
2019-04-04T13:40:49.986Z,13.27
2019-04-04T13:43:22.534Z,13.16
2019-04-04T13:45:55.782Z,13.34
2019-04-04T13:48:26.419Z,13.26
2019-04-04T13:50:57.461Z,13.28
2019-04-04T13:53:28.637Z,13.17
2019-04-04T13:55:59.671Z,12.68
2019-04-04T13:58:30.734Z,12.53
2019-04-04T14:01:01.808Z,12.63
2019-04-04T14:03:32.917Z,12.69
2019-04-04T14:06:03.974Z,13.03
2019-04-04T14:08:34.985Z,12.84
2019-04-04T14:11:06.009Z,12.91
2019-04-04T14:13:36.951Z,12.85
2019-04-04T14:16:08.155Z,13.05
2019-04-04T14:18:40.172Z,13.15
2019-04-04T14:21:11.871Z,13.20
2019-04-04T14:23:45.303Z,13.17
2019-04-04T14:26:16.709Z,13.22
2019-04-04T14:28:47.710Z,13.17
2019-04-04T14:31:18.670Z,13.04
2019-04-04T14:33:49.742Z,13.20
2019-04-04T14:36:20.829Z,13.16
2019-04-04T14:38:51.962Z,13.06
2019-04-04T14:41:23.052Z,13.19
2019-04-04T14:43:54.033Z,12.95
2019-04-04T14:46:26.179Z,12.98
2019-04-04T14:48:57.147Z,12.94
2019-04-04T14:51:28.194Z,13.33
2019-04-04T14:53:59.203Z,13.19
2019-04-04T14:56:30.302Z,13.49
2019-04-04T14:59:04.311Z,13.63
2019-04-04T15:01:35.376Z,13.94
2019-04-04T15:04:06.369Z,14.09
2019-04-04T15:06:37.480Z,14.12
2019-04-04T15:09:10.140Z,14.19
2019-04-04T15:11:41.177Z,14.39
2019-04-04T15:14:12.463Z,14.16
2019-04-04T15:16:43.778Z,14.00
2019-04-04T15:19:14.832Z,13.69
2019-04-04T15:21:45.808Z,13.70
2019-04-04T15:24:17.526Z,13.16
2019-04-04T15:26:48.569Z,13.25
2019-04-04T15:29:19.584Z,12.61
2019-04-04T15:31:50.562Z,12.11
2019-04-04T15:34:22.551Z,11.93
2019-04-04T15:36:53.584Z,12.03
2019-04-04T15:39:24.608Z,11.64
2019-04-04T15:41:55.781Z,11.44
2019-04-04T15:44:26.660Z,11.44
2019-04-04T15:46:57.770Z,11.34
2019-04-04T15:49:28.738Z,11.25
2019-04-04T15:51:59.879Z,11.26
2019-04-04T15:54:31.083Z,11.08
2019-04-04T15:57:02.100Z,11.17
2019-04-04T15:59:33.217Z,10.97
2019-04-04T16:02:04.491Z,10.98
2019-04-04T16:04:36.630Z,10.87
2019-04-04T16:07:07.860Z,10.83
2019-04-04T16:09:39.192Z,10.72
2019-04-04T16:12:10.106Z,10.73
2019-04-04T16:14:41.025Z,10.59
2019-04-04T16:17:12.106Z,10.62
2019-04-04T16:19:43.114Z,10.55
2019-04-04T16:22:14.154Z,10.48
2019-04-04T16:24:45.963Z,10.39
2019-04-04T16:27:16.981Z,10.31
2019-04-04T16:29:47.984Z,10.23
2019-04-04T16:32:18.995Z,10.21
2019-04-04T16:34:52.441Z,10.15
2019-04-04T16:37:22.623Z,10.10
2019-04-04T16:39:53.558Z,10.05
2019-04-04T16:42:24.584Z,10.00
2019-04-04T16:44:55.615Z,9.97
2019-04-04T16:47:28.490Z,9.86
2019-04-04T16:49:59.697Z,9.82
2019-04-04T16:52:30.767Z,9.75
2019-04-04T16:55:01.747Z,9.73
2019-04-04T16:57:32.764Z,9.67
2019-04-04T17:00:05.776Z,9.68
2019-04-04T17:02:36.962Z,9.65
2019-04-04T17:05:10.777Z,9.64
2019-04-04T17:07:40.751Z,9.62
2019-04-04T17:10:11.711Z,9.56
2019-04-04T17:12:42.758Z,9.51
2019-04-04T17:15:14.049Z,9.50
2019-04-04T17:17:45.065Z,9.46
2019-04-04T17:20:16.065Z,9.39
2019-04-04T17:22:47.220Z,9.38
2019-04-04T17:25:19.367Z,9.36
2019-04-04T17:27:50.483Z,9.32
2019-04-04T17:30:22.006Z,9.25
2019-04-04T17:32:53.198Z,9.15
2019-04-04T17:35:24.618Z,9.14
2019-04-04T17:37:55.809Z,9.09
2019-04-04T17:40:29.399Z,9.03
2019-04-04T17:43:00.409Z,8.98
2019-04-04T17:45:31.584Z,8.98
2019-04-04T17:48:02.864Z,8.93
2019-04-04T17:50:33.948Z,8.93
2019-04-04T17:53:07.749Z,8.84
2019-04-04T17:55:39.194Z,8.76
2019-04-04T17:58:10.599Z,8.69
2019-04-04T18:00:41.709Z,8.69
2019-04-04T18:03:12.952Z,8.68
2019-04-04T18:05:45.020Z,8.68
2019-04-04T18:08:15.960Z,8.61
2019-04-04T18:10:46.921Z,8.62
2019-04-04T18:13:18.044Z,8.55
2019-04-04T18:15:48.985Z,8.58
2019-04-04T18:18:20.021Z,8.58
2019-04-04T18:20:51.940Z,8.48
2019-04-04T18:23:22.953Z,8.40
2019-04-04T18:25:55.199Z,8.38
2019-04-04T18:28:26.386Z,8.38
2019-04-04T18:30:57.403Z,8.38
2019-04-04T18:33:28.704Z,8.37
2019-04-04T18:36:01.696Z,8.36
2019-04-04T18:38:33.185Z,8.32
2019-04-04T18:41:04.239Z,8.26
2019-04-04T18:43:35.382Z,8.23
2019-04-04T18:46:06.533Z,8.19
2019-04-04T18:48:37.497Z,8.12
2019-04-04T18:51:09.483Z,8.10
2019-04-04T18:53:40.532Z,8.07
2019-04-04T18:56:11.498Z,8.04
2019-04-04T18:58:42.550Z,8.01
2019-04-04T19:01:13.835Z,7.93
2019-04-04T19:03:44.810Z,7.89
2019-04-04T19:06:15.761Z,7.88
2019-04-04T19:08:46.826Z,7.88
2019-04-04T19:11:19.466Z,7.79
2019-04-04T19:13:50.398Z,7.72
2019-04-04T19:16:21.310Z,7.67
2019-04-04T19:18:52.527Z,7.55
2019-04-04T19:21:25.104Z,7.54
2019-04-04T19:23:56.048Z,7.55
2019-04-04T19:26:27.910Z,7.55
2019-04-04T19:28:59.042Z,7.53
2019-04-04T19:31:30.187Z,7.46
2019-04-04T19:34:01.327Z,7.38
2019-04-04T19:36:32.355Z,7.29
2019-04-04T19:39:05.620Z,7.22
2019-04-04T19:41:36.847Z,7.06
2019-04-04T19:44:10.987Z,6.99
2019-04-04T19:46:42.164Z,6.99
2019-04-04T19:49:13.221Z,6.99
2019-04-04T19:51:44.259Z,6.96
2019-04-04T19:54:15.771Z,6.87
2019-04-04T19:56:46.804Z,6.81
2019-04-04T19:59:17.773Z,6.78
2019-04-04T20:01:48.814Z,6.79
2019-04-04T20:04:19.784Z,6.80
2019-04-04T20:06:50.725Z,6.77
2019-04-04T20:09:21.755Z,6.70
2019-04-04T20:11:52.679Z,6.60
2019-04-04T20:14:27.457Z,6.50
2019-04-04T20:16:56.390Z,6.41
2019-04-04T20:19:27.589Z,6.38
2019-04-04T20:21:58.665Z,6.34
2019-04-04T20:24:29.854Z,6.32
2019-04-04T20:27:01.769Z,6.20
2019-04-04T20:29:33.214Z,6.17
2019-04-04T20:32:04.659Z,6.05
2019-04-04T20:34:37.565Z,6.07
2019-04-04T20:37:08.605Z,6.00
2019-04-04T20:39:39.643Z,5.91
2019-04-04T20:42:10.666Z,5.82
2019-04-04T20:44:41.698Z,5.81
2019-04-04T20:47:12.726Z,5.69
2019-04-04T20:49:43.655Z,5.69
2019-04-04T20:52:14.559Z,5.68
2019-04-04T20:54:45.527Z,5.68
2019-04-04T20:57:16.444Z,5.60
2019-04-04T20:59:47.426Z,5.58
2019-04-04T21:02:18.360Z,5.52
2019-04-04T21:04:49.300Z,5.47
2019-04-04T21:07:20.372Z,5.41
2019-04-04T21:09:51.409Z,5.33
2019-04-04T21:12:22.346Z,5.17
2019-04-04T21:14:53.393Z,5.19
2019-04-04T21:17:24.311Z,5.08
2019-04-04T21:19:55.311Z,5.07
2019-04-04T21:22:27.818Z,5.04
2019-04-04T21:24:59.019Z,5.01
2019-04-04T21:27:30.875Z,4.96
2019-04-04T21:30:04.108Z,4.91
2019-04-04T21:32:35.103Z,4.91
2019-04-04T21:35:06.961Z,4.88
2019-04-04T21:37:38.153Z,4.90
2019-04-04T21:40:09.990Z,4.88
2019-04-04T21:42:40.906Z,4.83
2019-04-04T21:45:11.843Z,4.82
2019-04-04T21:47:42.884Z,4.82
2019-04-04T21:50:13.849Z,4.79
2019-04-04T21:52:44.771Z,4.74
2019-04-04T21:55:15.706Z,4.69
2019-04-04T21:57:46.738Z,4.59
2019-04-04T22:00:17.845Z,4.47
2019-04-04T22:02:50.381Z,4.47
2019-04-04T22:05:21.400Z,4.49
2019-04-04T22:07:52.287Z,4.40
2019-04-04T22:10:23.258Z,4.32
2019-04-04T22:12:54.277Z,4.37
2019-04-04T22:15:25.309Z,4.43
2019-04-04T22:17:56.257Z,4.29
2019-04-04T22:20:27.281Z,4.30
2019-04-04T22:22:58.193Z,4.34
2019-04-04T22:25:37.423Z,4.32
2019-04-04T22:28:10.546Z,4.20
2019-04-04T22:30:41.703Z,4.20
2019-04-04T22:33:12.617Z,4.09
2019-04-04T22:35:43.575Z,4.00
2019-04-04T22:38:14.477Z,3.92
2019-04-04T22:40:45.416Z,3.86
2019-04-04T22:43:16.354Z,3.79
2019-04-04T22:45:47.383Z,3.77
2019-04-04T22:48:18.393Z,3.73
2019-04-04T22:50:49.346Z,3.71
2019-04-04T22:53:20.318Z,3.68
2019-04-04T22:55:51.285Z,3.68
2019-04-04T22:58:28.076Z,3.69
2019-04-04T23:00:54.926Z,3.70
2019-04-04T23:03:27.281Z,3.61
2019-04-04T23:05:58.228Z,3.52
2019-04-04T23:08:29.160Z,3.46
2019-04-04T23:11:00.134Z,3.43
2019-04-04T23:13:31.130Z,3.46
2019-04-04T23:16:02.151Z,3.47
2019-04-04T23:18:34.144Z,3.43
2019-04-04T23:21:05.108Z,3.42
2019-04-04T23:23:36.035Z,3.40
2019-04-04T23:26:06.968Z,3.41
2019-04-04T23:28:38.775Z,3.41
2019-04-04T23:31:10.089Z,3.30
2019-04-04T23:33:41.198Z,3.21
2019-04-04T23:36:12.263Z,3.15
2019-04-04T23:38:43.152Z,3.18
2019-04-04T23:41:14.153Z,3.05
2019-04-04T23:43:45.056Z,2.89
2019-04-04T23:46:16.064Z,2.97
2019-04-04T23:48:47.005Z,3.07
2019-04-04T23:51:17.959Z,3.02
2019-04-04T23:53:48.898Z,2.96
2019-04-04T23:56:19.916Z,2.87
2019-04-04T23:58:50.908Z,2.82
